sensor_id;sensor_type;location;lat;lon;timestamp;temperature;humidity
78475;SHT31;67766;51.964;5.660;2023-04-03T00:01:58;8.3;49.8
78475;SHT31;67766;51.964;5.660;2023-04-03T00:04:28;8.2;49.7
78475;SHT31;67766;51.964;5.660;2023-04-03T00:06:58;8.2;49.8
78475;SHT31;67766;51.964;5.660;2023-04-03T00:09:28;8.2;49.9
78475;SHT31;67766;51.964;5.660;2023-04-03T00:11:57;8.2;49.7
78475;SHT31;67766;51.964;5.660;2023-04-03T00:14:27;8.1;49.8
78475;SHT31;67766;51.964;5.660;2023-04-03T00:16:57;8.1;50.1
78475;SHT31;67766;51.964;5.660;2023-04-03T00:19:26;8.1;49.7
78475;SHT31;67766;51.964;5.660;2023-04-03T00:21:56;8.1;49.9
78475;SHT31;67766;51.964;5.660;2023-04-03T00:24:29;8.1;49.9
78475;SHT31;67766;51.964;5.660;2023-04-03T00:27:00;8.0;49.9
78475;SHT31;67766;51.964;5.660;2023-04-03T00:29:30;8.0;49.8
78475;SHT31;67766;51.964;5.660;2023-04-03T00:32:01;8.0;49.7
78475;SHT31;67766;51.964;5.660;2023-04-03T00:34:31;8.0;49.9
78475;SHT31;67766;51.964;5.660;2023-04-03T00:37:01;7.9;49.9
78475;SHT31;67766;51.964;5.660;2023-04-03T00:39:30;7.9;50.0
78475;SHT31;67766;51.964;5.660;2023-04-03T00:42:01;7.9;50.0
78475;SHT31;67766;51.964;5.660;2023-04-03T00:47:35;7.9;49.8
78475;SHT31;67766;51.964;5.660;2023-04-03T00:50:06;7.8;49.9
78475;SHT31;67766;51.964;5.660;2023-04-03T00:52:37;7.8;49.9
78475;SHT31;67766;51.964;5.660;2023-04-03T00:55:09;7.8;50.1
78475;SHT31;67766;51.964;5.660;2023-04-03T00:57:42;7.7;50.1
78475;SHT31;67766;51.964;5.660;2023-04-03T01:00:16;7.7;50.3
78475;SHT31;67766;51.964;5.660;2023-04-03T01:02:46;7.7;50.5
78475;SHT31;67766;51.964;5.660;2023-04-03T01:05:17;7.7;50.5
78475;SHT31;67766;51.964;5.660;2023-04-03T01:07:49;7.6;50.7
78475;SHT31;67766;51.964;5.660;2023-04-03T01:10:21;7.6;50.6
78475;SHT31;67766;51.964;5.660;2023-04-03T01:12:53;7.6;50.7
78475;SHT31;67766;51.964;5.660;2023-04-03T01:15:24;7.6;50.9
78475;SHT31;67766;51.964;5.660;2023-04-03T01:17:58;7.6;50.7
78475;SHT31;67766;51.964;5.660;2023-04-03T01:21:23;7.6;50.8
78475;SHT31;67766;51.964;5.660;2023-04-03T01:24:24;7.5;51.0
78475;SHT31;67766;51.964;5.660;2023-04-03T01:26:57;7.5;51.3
78475;SHT31;67766;51.964;5.660;2023-04-03T01:29:29;7.5;51.2
78475;SHT31;67766;51.964;5.660;2023-04-03T01:31:59;7.5;51.3
78475;SHT31;67766;51.964;5.660;2023-04-03T01:34:30;7.5;51.4
78475;SHT31;67766;51.964;5.660;2023-04-03T01:37:00;7.4;51.5
78475;SHT31;67766;51.964;5.660;2023-04-03T01:39:29;7.4;51.6
78475;SHT31;67766;51.964;5.660;2023-04-03T01:41:59;7.4;51.6
78475;SHT31;67766;51.964;5.660;2023-04-03T01:44:28;7.4;51.7
78475;SHT31;67766;51.964;5.660;2023-04-03T01:47:00;7.4;51.9
78475;SHT31;67766;51.964;5.660;2023-04-03T01:49:29;7.4;51.9
78475;SHT31;67766;51.964;5.660;2023-04-03T01:51:59;7.3;52.0
78475;SHT31;67766;51.964;5.660;2023-04-03T01:54:29;7.3;52.2
78475;SHT31;67766;51.964;5.660;2023-04-03T01:56:59;7.3;52.4
78475;SHT31;67766;51.964;5.660;2023-04-03T01:59:28;7.3;52.5
78475;SHT31;67766;51.964;5.660;2023-04-03T02:01:58;7.2;52.8
78475;SHT31;67766;51.964;5.660;2023-04-03T02:04:27;7.2;52.8
78475;SHT31;67766;51.964;5.660;2023-04-03T02:06:57;7.2;52.9
78475;SHT31;67766;51.964;5.660;2023-04-03T02:09:27;7.2;52.9
78475;SHT31;67766;51.964;5.660;2023-04-03T02:11:57;7.2;53.1
78475;SHT31;67766;51.964;5.660;2023-04-03T02:14:27;7.1;53.2
78475;SHT31;67766;51.964;5.660;2023-04-03T02:16:59;7.1;53.3
78475;SHT31;67766;51.964;5.660;2023-04-03T02:19:32;7.1;53.4
78475;SHT31;67766;51.964;5.660;2023-04-03T02:22:02;7.1;53.6
78475;SHT31;67766;51.964;5.660;2023-04-03T02:24:32;7.1;53.6
78475;SHT31;67766;51.964;5.660;2023-04-03T02:27:01;7.0;53.8
78475;SHT31;67766;51.964;5.660;2023-04-03T02:29:31;7.0;53.9
78475;SHT31;67766;51.964;5.660;2023-04-03T02:32:01;7.0;54.0
78475;SHT31;67766;51.964;5.660;2023-04-03T02:34:30;7.0;54.1
78475;SHT31;67766;51.964;5.660;2023-04-03T02:37:00;6.9;54.1
78475;SHT31;67766;51.964;5.660;2023-04-03T02:39:30;6.9;54.4
78475;SHT31;67766;51.964;5.660;2023-04-03T02:42:00;6.9;54.4
78475;SHT31;67766;51.964;5.660;2023-04-03T02:44:29;6.9;54.6
78475;SHT31;67766;51.964;5.660;2023-04-03T02:46:59;6.9;54.6
78475;SHT31;67766;51.964;5.660;2023-04-03T02:49:30;6.9;54.6
78475;SHT31;67766;51.964;5.660;2023-04-03T02:51:59;6.9;54.8
78475;SHT31;67766;51.964;5.660;2023-04-03T02:54:29;6.9;54.8
78475;SHT31;67766;51.964;5.660;2023-04-03T02:56:59;6.9;54.8
78475;SHT31;67766;51.964;5.660;2023-04-03T02:59:30;6.9;54.9
78475;SHT31;67766;51.964;5.660;2023-04-03T03:02:00;6.8;54.9
78475;SHT31;67766;51.964;5.660;2023-04-03T03:04:29;6.8;54.9
78475;SHT31;67766;51.964;5.660;2023-04-03T03:06:59;6.8;55.0
78475;SHT31;67766;51.964;5.660;2023-04-03T03:09:29;6.8;55.2
78475;SHT31;67766;51.964;5.660;2023-04-03T03:11:59;6.8;55.2
78475;SHT31;67766;51.964;5.660;2023-04-03T03:14:29;6.8;55.2
78475;SHT31;67766;51.964;5.660;2023-04-03T03:16:58;6.8;55.1
78475;SHT31;67766;51.964;5.660;2023-04-03T03:22:02;6.8;55.2
78475;SHT31;67766;51.964;5.660;2023-04-03T03:24:32;6.8;55.3
78475;SHT31;67766;51.964;5.660;2023-04-03T03:27:03;6.7;55.3
78475;SHT31;67766;51.964;5.660;2023-04-03T03:29:33;6.7;55.3
78475;SHT31;67766;51.964;5.660;2023-04-03T03:32:02;6.7;55.3
78475;SHT31;67766;51.964;5.660;2023-04-03T03:34:32;6.7;55.3
78475;SHT31;67766;51.964;5.660;2023-04-03T03:37:02;6.7;55.5
78475;SHT31;67766;51.964;5.660;2023-04-03T03:39:31;6.7;55.4
78475;SHT31;67766;51.964;5.660;2023-04-03T03:42:01;6.7;55.4
78475;SHT31;67766;51.964;5.660;2023-04-03T03:44:30;6.7;55.6
78475;SHT31;67766;51.964;5.660;2023-04-03T03:47:00;6.7;55.5
78475;SHT31;67766;51.964;5.660;2023-04-03T03:49:30;6.7;55.8
78475;SHT31;67766;51.964;5.660;2023-04-03T03:52:01;6.6;56.0
78475;SHT31;67766;51.964;5.660;2023-04-03T03:54:31;6.6;55.9
78475;SHT31;67766;51.964;5.660;2023-04-03T03:57:01;6.6;56.0
78475;SHT31;67766;51.964;5.660;2023-04-03T03:59:30;6.6;56.1
78475;SHT31;67766;51.964;5.660;2023-04-03T04:02:00;6.5;56.3
78475;SHT31;67766;51.964;5.660;2023-04-03T04:04:30;6.5;56.2
78475;SHT31;67766;51.964;5.660;2023-04-03T04:06:59;6.5;56.4
78475;SHT31;67766;51.964;5.660;2023-04-03T04:09:31;6.5;56.5
78475;SHT31;67766;51.964;5.660;2023-04-03T04:12:01;6.4;56.6
78475;SHT31;67766;51.964;5.660;2023-04-03T04:14:30;6.4;56.5
78475;SHT31;67766;51.964;5.660;2023-04-03T04:17:00;6.4;56.7
78475;SHT31;67766;51.964;5.660;2023-04-03T04:19:30;6.4;56.6
78475;SHT31;67766;51.964;5.660;2023-04-03T04:22:00;6.3;56.6
78475;SHT31;67766;51.964;5.660;2023-04-03T04:24:30;6.3;56.8
78475;SHT31;67766;51.964;5.660;2023-04-03T04:26:59;6.3;56.9
78475;SHT31;67766;51.964;5.660;2023-04-03T04:29:29;6.2;57.0
78475;SHT31;67766;51.964;5.660;2023-04-03T04:32:03;6.2;57.2
78475;SHT31;67766;51.964;5.660;2023-04-03T04:34:33;6.2;57.3
78475;SHT31;67766;51.964;5.660;2023-04-03T04:37:03;6.1;57.3
78475;SHT31;67766;51.964;5.660;2023-04-03T04:39:33;6.1;57.7
78475;SHT31;67766;51.964;5.660;2023-04-03T04:42:03;6.1;57.8
78475;SHT31;67766;51.964;5.660;2023-04-03T04:44:34;6.1;57.9
78475;SHT31;67766;51.964;5.660;2023-04-03T04:47:04;6.0;58.1
78475;SHT31;67766;51.964;5.660;2023-04-03T04:49:35;6.0;58.2
78475;SHT31;67766;51.964;5.660;2023-04-03T04:52:05;6.0;58.2
78475;SHT31;67766;51.964;5.660;2023-04-03T04:54:35;6.0;58.3
78475;SHT31;67766;51.964;5.660;2023-04-03T04:57:04;5.9;58.3
78475;SHT31;67766;51.964;5.660;2023-04-03T04:59:34;5.9;58.4
78475;SHT31;67766;51.964;5.660;2023-04-03T05:02:03;5.9;58.5
78475;SHT31;67766;51.964;5.660;2023-04-03T05:04:33;5.9;58.5
78475;SHT31;67766;51.964;5.660;2023-04-03T05:07:03;5.9;58.4
78475;SHT31;67766;51.964;5.660;2023-04-03T05:09:32;5.9;58.4
78475;SHT31;67766;51.964;5.660;2023-04-03T05:12:02;5.8;58.6
78475;SHT31;67766;51.964;5.660;2023-04-03T05:14:32;5.8;58.5
78475;SHT31;67766;51.964;5.660;2023-04-03T05:17:02;5.8;58.6
78475;SHT31;67766;51.964;5.660;2023-04-03T05:19:31;5.7;58.6
78475;SHT31;67766;51.964;5.660;2023-04-03T05:22:02;5.7;58.7
78475;SHT31;67766;51.964;5.660;2023-04-03T05:24:32;5.7;58.8
78475;SHT31;67766;51.964;5.660;2023-04-03T05:27:01;5.7;58.7
78475;SHT31;67766;51.964;5.660;2023-04-03T05:29:33;5.7;58.8
78475;SHT31;67766;51.964;5.660;2023-04-03T05:32:03;5.7;58.9
78475;SHT31;67766;51.964;5.660;2023-04-03T05:34:32;5.6;58.8
78475;SHT31;67766;51.964;5.660;2023-04-03T05:37:02;5.6;58.8
78475;SHT31;67766;51.964;5.660;2023-04-03T05:39:32;5.6;58.8
78475;SHT31;67766;51.964;5.660;2023-04-03T05:42:02;5.6;58.7
78475;SHT31;67766;51.964;5.660;2023-04-03T05:44:32;5.6;58.8
78475;SHT31;67766;51.964;5.660;2023-04-03T05:47:04;5.6;58.8
78475;SHT31;67766;51.964;5.660;2023-04-03T05:49:36;5.6;58.7
78475;SHT31;67766;51.964;5.660;2023-04-03T05:52:17;5.6;58.8
78475;SHT31;67766;51.964;5.660;2023-04-03T05:54:51;5.6;58.9
78475;SHT31;67766;51.964;5.660;2023-04-03T05:57:22;5.7;58.7
78475;SHT31;67766;51.964;5.660;2023-04-03T05:59:51;5.7;58.7
78475;SHT31;67766;51.964;5.660;2023-04-03T06:02:24;5.8;58.3
78475;SHT31;67766;51.964;5.660;2023-04-03T06:04:54;5.8;58.2
78475;SHT31;67766;51.964;5.660;2023-04-03T06:07:25;5.9;58.1
78475;SHT31;67766;51.964;5.660;2023-04-03T06:09:56;6.0;57.7
78475;SHT31;67766;51.964;5.660;2023-04-03T06:12:27;6.0;57.7
78475;SHT31;67766;51.964;5.660;2023-04-03T06:14:57;6.1;57.4
78475;SHT31;67766;51.964;5.660;2023-04-03T06:17:26;6.2;57.1
78475;SHT31;67766;51.964;5.660;2023-04-03T06:19:57;6.3;56.9
78475;SHT31;67766;51.964;5.660;2023-04-03T06:22:26;6.4;56.5
78475;SHT31;67766;51.964;5.660;2023-04-03T06:24:59;6.4;56.3
78475;SHT31;67766;51.964;5.660;2023-04-03T06:27:30;6.5;55.8
78475;SHT31;67766;51.964;5.660;2023-04-03T06:30:00;6.6;55.6
78475;SHT31;67766;51.964;5.660;2023-04-03T06:32:30;6.7;55.4
78475;SHT31;67766;51.964;5.660;2023-04-03T06:35:00;6.8;55.5
78475;SHT31;67766;51.964;5.660;2023-04-03T06:37:29;6.9;55.5
78475;SHT31;67766;51.964;5.660;2023-04-03T06:39:59;7.0;54.8
78475;SHT31;67766;51.964;5.660;2023-04-03T06:42:30;7.1;54.3
78475;SHT31;67766;51.964;5.660;2023-04-03T06:45:00;7.2;53.9
78475;SHT31;67766;51.964;5.660;2023-04-03T06:47:29;7.2;54.0
78475;SHT31;67766;51.964;5.660;2023-04-03T06:49:59;7.3;53.5
78475;SHT31;67766;51.964;5.660;2023-04-03T06:52:28;7.4;53.4
78475;SHT31;67766;51.964;5.660;2023-04-03T06:54:58;7.6;53.0
78475;SHT31;67766;51.964;5.660;2023-04-03T06:57:28;7.7;53.0
78475;SHT31;67766;51.964;5.660;2023-04-03T06:59:59;7.8;51.9
78475;SHT31;67766;51.964;5.660;2023-04-03T07:02:30;7.9;51.8
78475;SHT31;67766;51.964;5.660;2023-04-03T07:05:00;8.0;51.6
78475;SHT31;67766;51.964;5.660;2023-04-03T07:07:30;8.2;51.1
78475;SHT31;67766;51.964;5.660;2023-04-03T07:10:01;8.3;50.6
78475;SHT31;67766;51.964;5.660;2023-04-03T07:12:31;8.4;50.4
78475;SHT31;67766;51.964;5.660;2023-04-03T07:15:02;8.6;49.6
78475;SHT31;67766;51.964;5.660;2023-04-03T07:17:32;8.7;48.5
78475;SHT31;67766;51.964;5.660;2023-04-03T07:20:03;8.8;49.3
78475;SHT31;67766;51.964;5.660;2023-04-03T07:22:33;9.0;48.9
78475;SHT31;67766;51.964;5.660;2023-04-03T07:25:03;9.1;47.4
78475;SHT31;67766;51.964;5.660;2023-04-03T07:27:34;9.2;47.5
78475;SHT31;67766;51.964;5.660;2023-04-03T07:30:05;9.3;46.5
78475;SHT31;67766;51.964;5.660;2023-04-03T07:32:36;9.5;45.2
78475;SHT31;67766;51.964;5.660;2023-04-03T07:35:06;9.6;46.4
78475;SHT31;67766;51.964;5.660;2023-04-03T07:37:36;9.7;44.1
78475;SHT31;67766;51.964;5.660;2023-04-03T07:40:06;9.8;43.7
78475;SHT31;67766;51.964;5.660;2023-04-03T07:42:38;9.9;44.1
78475;SHT31;67766;51.964;5.660;2023-04-03T07:45:08;10.1;44.3
78475;SHT31;67766;51.964;5.660;2023-04-03T07:47:38;10.2;43.8
78475;SHT31;67766;51.964;5.660;2023-04-03T07:50:09;10.4;43.4
78475;SHT31;67766;51.964;5.660;2023-04-03T07:52:38;10.5;42.2
78475;SHT31;67766;51.964;5.660;2023-04-03T07:55:08;10.6;41.3
78475;SHT31;67766;51.964;5.660;2023-04-03T07:57:38;10.7;40.5
78475;SHT31;67766;51.964;5.660;2023-04-03T08:00:09;10.8;41.4
78475;SHT31;67766;51.964;5.660;2023-04-03T08:02:39;10.8;40.5
78475;SHT31;67766;51.964;5.660;2023-04-03T08:05:09;10.9;41.1
78475;SHT31;67766;51.964;5.660;2023-04-03T08:07:41;11.1;38.3
78475;SHT31;67766;51.964;5.660;2023-04-03T08:10:12;11.2;38.6
78475;SHT31;67766;51.964;5.660;2023-04-03T08:12:42;11.3;38.2
78475;SHT31;67766;51.964;5.660;2023-04-03T08:15:14;11.5;37.4
78475;SHT31;67766;51.964;5.660;2023-04-03T08:17:44;11.6;37.5
78475;SHT31;67766;51.964;5.660;2023-04-03T08:20:14;11.7;37.1
78475;SHT31;67766;51.964;5.660;2023-04-03T08:22:43;11.8;36.1
78475;SHT31;67766;51.964;5.660;2023-04-03T08:25:13;11.9;36.0
78475;SHT31;67766;51.964;5.660;2023-04-03T08:27:44;12.0;34.1
78475;SHT31;67766;51.964;5.660;2023-04-03T08:30:14;12.2;33.9
78475;SHT31;67766;51.964;5.660;2023-04-03T08:32:44;12.3;33.6
78475;SHT31;67766;51.964;5.660;2023-04-03T08:35:14;12.4;31.7
78475;SHT31;67766;51.964;5.660;2023-04-03T08:37:44;12.5;31.5
78475;SHT31;67766;51.964;5.660;2023-04-03T08:40:16;12.6;30.5
78475;SHT31;67766;51.964;5.660;2023-04-03T08:42:53;12.7;30.4
78475;SHT31;67766;51.964;5.660;2023-04-03T08:45:37;12.8;30.9
78475;SHT31;67766;51.964;5.660;2023-04-03T08:48:15;13.0;28.6
78475;SHT31;67766;51.964;5.660;2023-04-03T08:50:49;13.2;26.6
78475;SHT31;67766;51.964;5.660;2023-04-03T08:53:21;13.3;27.3
78475;SHT31;67766;51.964;5.660;2023-04-03T08:55:53;13.3;26.2
78475;SHT31;67766;51.964;5.660;2023-04-03T08:58:25;13.4;27.1
78475;SHT31;67766;51.964;5.660;2023-04-03T09:01:00;13.4;27.1
78475;SHT31;67766;51.964;5.660;2023-04-03T09:03:34;13.5;25.6
78475;SHT31;67766;51.964;5.660;2023-04-03T09:06:07;13.6;25.2
78475;SHT31;67766;51.964;5.660;2023-04-03T09:08:46;13.6;25.8
78475;SHT31;67766;51.964;5.660;2023-04-03T09:11:23;13.7;25.2
78475;SHT31;67766;51.964;5.660;2023-04-03T09:13:59;13.9;25.9
78475;SHT31;67766;51.964;5.660;2023-04-03T09:16:39;14.0;24.2
78475;SHT31;67766;51.964;5.660;2023-04-03T09:19:21;14.3;21.7
78475;SHT31;67766;51.964;5.660;2023-04-03T09:21:54;14.4;22.8
78475;SHT31;67766;51.964;5.660;2023-04-03T09:24:26;14.5;21.9
78475;SHT31;67766;51.964;5.660;2023-04-03T09:26:59;14.5;20.5
78475;SHT31;67766;51.964;5.660;2023-04-03T09:29:39;14.5;21.6
78475;SHT31;67766;51.964;5.660;2023-04-03T09:32:21;14.6;21.9
78475;SHT31;67766;51.964;5.660;2023-04-03T09:34:53;14.6;21.0
78475;SHT31;67766;51.964;5.660;2023-04-03T09:37:38;14.6;19.7
78475;SHT31;67766;51.964;5.660;2023-04-03T09:40:51;14.7;20.2
78475;SHT31;67766;51.964;5.660;2023-04-03T09:43:37;14.7;21.2
78475;SHT31;67766;51.964;5.660;2023-04-03T09:46:28;14.7;21.6
78475;SHT31;67766;51.964;5.660;2023-04-03T09:49:00;14.8;20.9
78475;SHT31;67766;51.964;5.660;2023-04-03T09:51:31;14.8;19.8
78475;SHT31;67766;51.964;5.660;2023-04-03T09:54:30;14.9;19.6
78475;SHT31;67766;51.964;5.660;2023-04-03T09:57:05;15.0;19.7
78475;SHT31;67766;51.964;5.660;2023-04-03T09:59:39;15.1;19.7
78475;SHT31;67766;51.964;5.660;2023-04-03T10:02:23;15.1;20.7
78475;SHT31;67766;51.964;5.660;2023-04-03T10:04:57;15.2;21.1
78475;SHT31;67766;51.964;5.660;2023-04-03T10:07:30;15.3;20.6
78475;SHT31;67766;51.964;5.660;2023-04-03T10:10:14;15.4;20.6
78475;SHT31;67766;51.964;5.660;2023-04-03T10:12:37;15.6;19.4
78475;SHT31;67766;51.964;5.660;2023-04-03T10:15:14;15.7;19.4
78475;SHT31;67766;51.964;5.660;2023-04-03T10:17:51;15.7;19.0
78475;SHT31;67766;51.964;5.660;2023-04-03T10:20:35;15.8;19.5
78475;SHT31;67766;51.964;5.660;2023-04-03T10:23:15;15.9;19.6
78475;SHT31;67766;51.964;5.660;2023-04-03T10:25:59;16.0;19.5
78475;SHT31;67766;51.964;5.660;2023-04-03T10:28:41;16.1;19.4
78475;SHT31;67766;51.964;5.660;2023-04-03T10:31:25;16.2;20.7
78475;SHT31;67766;51.964;5.660;2023-04-03T10:34:06;16.3;19.8
78475;SHT31;67766;51.964;5.660;2023-04-03T10:36:48;16.3;20.3
78475;SHT31;67766;51.964;5.660;2023-04-03T10:39:30;16.5;20.0
78475;SHT31;67766;51.964;5.660;2023-04-03T10:42:10;16.6;19.6
78475;SHT31;67766;51.964;5.660;2023-04-03T10:44:54;16.7;19.3
78475;SHT31;67766;51.964;5.660;2023-04-03T10:47:33;16.8;19.6
78475;SHT31;67766;51.964;5.660;2023-04-03T10:50:22;17.0;20.8
78475;SHT31;67766;51.964;5.660;2023-04-03T10:53:03;17.2;19.9
78475;SHT31;67766;51.964;5.660;2023-04-03T10:55:37;17.4;20.4
78475;SHT31;67766;51.964;5.660;2023-04-03T10:58:19;17.5;20.3
78475;SHT31;67766;51.964;5.660;2023-04-03T11:00:52;17.6;20.8
78475;SHT31;67766;51.964;5.660;2023-04-03T11:03:29;17.7;20.1
78475;SHT31;67766;51.964;5.660;2023-04-03T11:06:05;17.8;19.3
78475;SHT31;67766;51.964;5.660;2023-04-03T11:08:40;17.9;19.8
78475;SHT31;67766;51.964;5.660;2023-04-03T11:11:14;17.9;19.3
78475;SHT31;67766;51.964;5.660;2023-04-03T11:13:51;17.9;18.9
78475;SHT31;67766;51.964;5.660;2023-04-03T11:16:29;18.0;19.5
78475;SHT31;67766;51.964;5.660;2023-04-03T11:19:03;18.0;19.6
78475;SHT31;67766;51.964;5.660;2023-04-03T11:21:39;18.1;19.7
78475;SHT31;67766;51.964;5.660;2023-04-03T11:24:22;18.1;19.5
78475;SHT31;67766;51.964;5.660;2023-04-03T11:26:54;18.1;19.6
78475;SHT31;67766;51.964;5.660;2023-04-03T11:29:28;18.0;18.5
78475;SHT31;67766;51.964;5.660;2023-04-03T11:32:11;17.9;18.5
78475;SHT31;67766;51.964;5.660;2023-04-03T11:34:49;17.7;19.2
78475;SHT31;67766;51.964;5.660;2023-04-03T11:37:28;17.6;19.4
78475;SHT31;67766;51.964;5.660;2023-04-03T11:40:02;17.4;20.4
78475;SHT31;67766;51.964;5.660;2023-04-03T11:42:39;17.2;19.0
78475;SHT31;67766;51.964;5.660;2023-04-03T11:45:31;16.9;20.4
78475;SHT31;67766;51.964;5.660;2023-04-03T11:48:04;16.6;20.7
78475;SHT31;67766;51.964;5.660;2023-04-03T11:50:42;16.4;21.1
78475;SHT31;67766;51.964;5.660;2023-04-03T11:53:31;16.2;21.0
78475;SHT31;67766;51.964;5.660;2023-04-03T11:57:12;15.9;22.5
78475;SHT31;67766;51.964;5.660;2023-04-03T11:59:47;15.6;21.6
78475;SHT31;67766;51.964;5.660;2023-04-03T12:02:37;15.5;21.0
78475;SHT31;67766;51.964;5.660;2023-04-03T12:05:27;15.4;21.9
78475;SHT31;67766;51.964;5.660;2023-04-03T12:08:25;15.3;21.8
78475;SHT31;67766;51.964;5.660;2023-04-03T12:11:15;15.2;22.1
78475;SHT31;67766;51.964;5.660;2023-04-03T12:14:05;15.0;21.8
78475;SHT31;67766;51.964;5.660;2023-04-03T12:16:43;14.9;22.5
78475;SHT31;67766;51.964;5.660;2023-04-03T12:19:37;14.8;22.9
78475;SHT31;67766;51.964;5.660;2023-04-03T12:22:13;14.7;22.9
78475;SHT31;67766;51.964;5.660;2023-04-03T12:24:45;14.6;22.6
78475;SHT31;67766;51.964;5.660;2023-04-03T12:27:22;14.5;24.4
78475;SHT31;67766;51.964;5.660;2023-04-03T12:30:00;14.4;23.7
78475;SHT31;67766;51.964;5.660;2023-04-03T12:32:54;14.3;23.8
78475;SHT31;67766;51.964;5.660;2023-04-03T12:35:34;14.2;24.1
78475;SHT31;67766;51.964;5.660;2023-04-03T12:39:58;14.1;25.0
78475;SHT31;67766;51.964;5.660;2023-04-03T12:45:42;13.9;25.6
78475;SHT31;67766;51.964;5.660;2023-04-03T12:48:20;13.9;24.4
78475;SHT31;67766;51.964;5.660;2023-04-03T12:50:52;13.9;24.8
78475;SHT31;67766;51.964;5.660;2023-04-03T12:53:25;13.9;24.7
78475;SHT31;67766;51.964;5.660;2023-04-03T12:56:25;13.9;25.0
78475;SHT31;67766;51.964;5.660;2023-04-03T12:59:14;13.9;26.7
78475;SHT31;67766;51.964;5.660;2023-04-03T13:01:57;13.8;26.8
78475;SHT31;67766;51.964;5.660;2023-04-03T13:04:28;13.8;26.6
78475;SHT31;67766;51.964;5.660;2023-04-03T13:06:59;13.8;27.0
78475;SHT31;67766;51.964;5.660;2023-04-03T13:09:30;13.8;26.1
78475;SHT31;67766;51.964;5.660;2023-04-03T13:12:03;13.7;26.0
78475;SHT31;67766;51.964;5.660;2023-04-03T13:14:32;13.6;26.7
78475;SHT31;67766;51.964;5.660;2023-04-03T13:17:12;13.6;27.2
78475;SHT31;67766;51.964;5.660;2023-04-03T13:19:44;13.5;27.0
78475;SHT31;67766;51.964;5.660;2023-04-03T13:22:28;13.5;27.1
78475;SHT31;67766;51.964;5.660;2023-04-03T13:25:07;13.4;27.1
78475;SHT31;67766;51.964;5.660;2023-04-03T13:27:38;13.4;27.1
78475;SHT31;67766;51.964;5.660;2023-04-03T13:30:23;13.3;27.4
78475;SHT31;67766;51.964;5.660;2023-04-03T13:32:55;13.2;27.3
78475;SHT31;67766;51.964;5.660;2023-04-03T13:35:34;13.1;26.7
78475;SHT31;67766;51.964;5.660;2023-04-03T13:38:23;13.1;26.3
78475;SHT31;67766;51.964;5.660;2023-04-03T13:40:56;13.1;26.7
78475;SHT31;67766;51.964;5.660;2023-04-03T13:43:29;13.0;26.8
78475;SHT31;67766;51.964;5.660;2023-04-03T13:46:02;13.0;26.5
78475;SHT31;67766;51.964;5.660;2023-04-03T13:48:42;12.9;26.9
78475;SHT31;67766;51.964;5.660;2023-04-03T13:51:22;12.9;27.9
78475;SHT31;67766;51.964;5.660;2023-04-03T13:53:56;12.8;27.6
78475;SHT31;67766;51.964;5.660;2023-04-03T13:56:31;12.8;28.8
78475;SHT31;67766;51.964;5.660;2023-04-03T13:59:23;12.8;28.2
78475;SHT31;67766;51.964;5.660;2023-04-03T14:02:04;12.7;28.4
78475;SHT31;67766;51.964;5.660;2023-04-03T14:04:31;12.7;27.9
78475;SHT31;67766;51.964;5.660;2023-04-03T14:07:03;12.7;27.4
78475;SHT31;67766;51.964;5.660;2023-04-03T14:09:33;12.6;27.1
78475;SHT31;67766;51.964;5.660;2023-04-03T14:12:06;12.6;26.6
78475;SHT31;67766;51.964;5.660;2023-04-03T14:14:39;12.6;26.9
78475;SHT31;67766;51.964;5.660;2023-04-03T14:17:14;12.6;27.9
78475;SHT31;67766;51.964;5.660;2023-04-03T14:19:45;12.6;28.2
78475;SHT31;67766;51.964;5.660;2023-04-03T14:22:18;12.6;27.9
78475;SHT31;67766;51.964;5.660;2023-04-03T14:24:49;12.6;27.2
78475;SHT31;67766;51.964;5.660;2023-04-03T14:27:23;12.5;28.5
78475;SHT31;67766;51.964;5.660;2023-04-03T14:29:54;12.5;29.0
78475;SHT31;67766;51.964;5.660;2023-04-03T14:32:26;12.5;30.5
78475;SHT31;67766;51.964;5.660;2023-04-03T14:34:56;12.4;30.5
78475;SHT31;67766;51.964;5.660;2023-04-03T14:37:33;12.4;29.9
78475;SHT31;67766;51.964;5.660;2023-04-03T14:40:06;12.4;30.2
78475;SHT31;67766;51.964;5.660;2023-04-03T14:42:37;12.4;29.9
78475;SHT31;67766;51.964;5.660;2023-04-03T14:45:10;12.4;30.4
78475;SHT31;67766;51.964;5.660;2023-04-03T14:47:45;12.4;30.8
78475;SHT31;67766;51.964;5.660;2023-04-03T14:50:19;12.4;30.6
78475;SHT31;67766;51.964;5.660;2023-04-03T14:52:56;12.4;30.4
78475;SHT31;67766;51.964;5.660;2023-04-03T14:55:26;12.4;30.5
78475;SHT31;67766;51.964;5.660;2023-04-03T14:57:58;12.4;30.7
78475;SHT31;67766;51.964;5.660;2023-04-03T15:00:28;12.4;30.8
78475;SHT31;67766;51.964;5.660;2023-04-03T15:02:58;12.4;30.9
78475;SHT31;67766;51.964;5.660;2023-04-03T15:05:27;12.4;30.4
78475;SHT31;67766;51.964;5.660;2023-04-03T15:07:58;12.4;30.8
78475;SHT31;67766;51.964;5.660;2023-04-03T15:10:29;12.3;31.3
78475;SHT31;67766;51.964;5.660;2023-04-03T15:13:00;12.3;30.1
78475;SHT31;67766;51.964;5.660;2023-04-03T15:15:31;12.3;30.9
78475;SHT31;67766;51.964;5.660;2023-04-03T15:18:01;12.2;31.1
78475;SHT31;67766;51.964;5.660;2023-04-03T15:20:31;12.2;31.1
78475;SHT31;67766;51.964;5.660;2023-04-03T15:23:04;12.2;30.7
78475;SHT31;67766;51.964;5.660;2023-04-03T15:25:33;12.2;31.3
78475;SHT31;67766;51.964;5.660;2023-04-03T15:28:06;12.1;31.7
78475;SHT31;67766;51.964;5.660;2023-04-03T15:30:40;12.1;32.1
78475;SHT31;67766;51.964;5.660;2023-04-03T15:33:14;12.1;32.7
78475;SHT31;67766;51.964;5.660;2023-04-03T15:35:45;12.2;32.0
78475;SHT31;67766;51.964;5.660;2023-04-03T15:38:14;12.2;31.6
78475;SHT31;67766;51.964;5.660;2023-04-03T15:40:46;12.2;31.2
78475;SHT31;67766;51.964;5.660;2023-04-03T15:43:18;12.2;31.9
78475;SHT31;67766;51.964;5.660;2023-04-03T15:45:48;12.2;32.5
78475;SHT31;67766;51.964;5.660;2023-04-03T15:48:18;12.2;33.0
78475;SHT31;67766;51.964;5.660;2023-04-03T15:50:50;12.2;30.9
78475;SHT31;67766;51.964;5.660;2023-04-03T15:53:20;12.2;30.0
78475;SHT31;67766;51.964;5.660;2023-04-03T15:55:50;12.2;30.3
78475;SHT31;67766;51.964;5.660;2023-04-03T15:58:19;12.1;31.4
78475;SHT31;67766;51.964;5.660;2023-04-03T16:00:49;12.1;31.9
78475;SHT31;67766;51.964;5.660;2023-04-03T16:03:21;12.1;32.7
78475;SHT31;67766;51.964;5.660;2023-04-03T16:05:51;12.1;32.9
78475;SHT31;67766;51.964;5.660;2023-04-03T16:08:22;12.1;32.5
78475;SHT31;67766;51.964;5.660;2023-04-03T16:10:52;12.1;33.0
78475;SHT31;67766;51.964;5.660;2023-04-03T16:13:22;12.1;32.6
78475;SHT31;67766;51.964;5.660;2023-04-03T16:15:55;12.1;32.9
78475;SHT31;67766;51.964;5.660;2023-04-03T16:18:25;12.1;32.9
78475;SHT31;67766;51.964;5.660;2023-04-03T16:20:59;12.1;32.9
78475;SHT31;67766;51.964;5.660;2023-04-03T16:23:28;12.1;33.0
78475;SHT31;67766;51.964;5.660;2023-04-03T16:25:58;12.1;32.3
78475;SHT31;67766;51.964;5.660;2023-04-03T16:28:27;12.0;32.6
78475;SHT31;67766;51.964;5.660;2023-04-03T16:30:58;12.0;32.7
78475;SHT31;67766;51.964;5.660;2023-04-03T16:33:33;12.0;32.6
78475;SHT31;67766;51.964;5.660;2023-04-03T16:36:05;12.0;32.5
78475;SHT31;67766;51.964;5.660;2023-04-03T16:38:35;12.0;32.9
78475;SHT31;67766;51.964;5.660;2023-04-03T16:41:05;12.0;33.0
78475;SHT31;67766;51.964;5.660;2023-04-03T16:43:34;12.0;33.3
78475;SHT31;67766;51.964;5.660;2023-04-03T16:46:06;11.9;33.5
78475;SHT31;67766;51.964;5.660;2023-04-03T16:48:38;11.9;32.5
78475;SHT31;67766;51.964;5.660;2023-04-03T16:51:08;11.9;32.5
78475;SHT31;67766;51.964;5.660;2023-04-03T16:53:38;11.9;32.9
78475;SHT31;67766;51.964;5.660;2023-04-03T16:56:12;11.9;32.7
78475;SHT31;67766;51.964;5.660;2023-04-03T16:58:42;11.9;33.5
78475;SHT31;67766;51.964;5.660;2023-04-03T17:01:14;11.9;33.4